createdAt,value
2022-08-05T00:00:54.219Z,6.50
2022-08-05T00:03:20.933Z,6.85
2022-08-05T00:06:04.909Z,6.72
2022-08-05T00:08:36.745Z,8.38
2022-08-05T00:11:20.612Z,9.80
2022-08-05T00:13:54.472Z,11.45
2022-08-05T00:16:36.264Z,7.32
2022-08-05T00:19:08.681Z,5.00
2022-08-05T00:21:35.982Z,4.78
2022-08-05T00:24:09.816Z,5.57
2022-08-05T00:29:04.263Z,4.95
2022-08-05T00:31:53.986Z,6.13
2022-08-05T00:34:56.865Z,9.30
2022-08-05T00:37:12.338Z,14.57
2022-08-05T00:39:44.163Z,7.28
2022-08-05T00:42:32.379Z,5.93
2022-08-05T00:44:59.978Z,7.82
2022-08-05T00:47:31.778Z,4.97
2022-08-05T00:50:13.642Z,10.43
2022-08-05T00:52:41.892Z,5.13
2022-08-05T00:55:12.338Z,7.80
2022-08-05T00:57:57.832Z,7.95
2022-08-05T01:00:27.236Z,8.25
2022-08-05T01:02:54.367Z,9.38
2022-08-05T01:05:21.555Z,5.35
2022-08-05T01:08:30.731Z,11.75
2022-08-05T01:10:51.622Z,10.18
2022-08-05T01:13:58.612Z,7.82
2022-08-05T01:16:38.358Z,7.43
2022-08-05T01:19:30.208Z,6.82
2022-08-05T01:25:02.898Z,7.38
2022-08-05T01:27:59.847Z,9.85
2022-08-05T01:30:34.550Z,8.18
2022-08-05T01:33:06.293Z,5.68
2022-08-05T01:35:50.956Z,8.13
2022-08-05T01:40:57.377Z,8.05
2022-08-05T01:43:26.313Z,9.85
2022-08-05T01:45:56.397Z,7.45
2022-08-05T01:48:29.244Z,6.47
2022-08-05T01:50:57.590Z,8.45
2022-08-05T01:53:54.962Z,9.98
2022-08-05T01:58:10.722Z,7.88
2022-08-05T01:59:06.947Z,7.75
2022-08-05T02:01:39.882Z,9.40
2022-08-05T02:04:09.006Z,13.23
2022-08-05T02:06:38.948Z,16.27
2022-08-05T02:09:07.126Z,6.60
2022-08-05T02:11:48.099Z,7.70
2022-08-05T02:14:31.882Z,7.75
2022-08-05T02:17:06.886Z,6.05
2022-08-05T02:19:40.613Z,10.15
2022-08-05T02:22:26.742Z,6.18
2022-08-05T02:25:02.264Z,9.52
2022-08-05T02:27:59.427Z,6.43
2022-08-05T02:30:20.566Z,9.05
2022-08-05T02:32:51.945Z,9.65
2022-08-05T02:35:28.186Z,6.70
2022-08-05T02:38:02.315Z,8.15
2022-08-05T02:40:30.002Z,6.10
2022-08-05T02:42:58.774Z,10.48
2022-08-05T02:45:26.686Z,6.55
2022-08-05T02:48:09.821Z,10.23
2022-08-05T02:50:43.951Z,6.43
2022-08-05T02:53:18.848Z,6.20
2022-08-05T02:55:55.315Z,10.55
2022-08-05T02:58:28.904Z,6.22
2022-08-05T03:01:01.846Z,8.43
2022-08-05T03:03:33.574Z,8.80
2022-08-05T03:06:54.300Z,6.88
2022-08-05T03:08:52.325Z,7.60
2022-08-05T03:11:53.307Z,6.38
2022-08-05T03:14:13.591Z,10.95
2022-08-05T03:16:40.902Z,8.27
2022-08-05T03:19:17.239Z,6.82
2022-08-05T03:21:54.696Z,8.50
2022-08-05T03:24:29.940Z,9.13
2022-08-05T03:26:58.503Z,9.43
2022-08-05T03:29:45.216Z,11.25
2022-08-05T03:32:14.447Z,10.75
2022-08-05T03:34:42.494Z,11.82
2022-08-05T03:37:17.701Z,10.07
2022-08-05T03:40:01.582Z,6.57
2022-08-05T03:42:32.144Z,10.50
2022-08-05T03:44:59.353Z,12.60
2022-08-05T03:47:30.420Z,9.88
2022-08-05T03:50:01.736Z,7.17
2022-08-05T03:52:50.492Z,7.45
2022-08-05T03:56:04.809Z,9.98
2022-08-05T03:58:21.485Z,9.02
2022-08-05T04:00:59.958Z,7.45
2022-08-05T04:03:29.395Z,9.27
2022-08-05T04:05:57.805Z,7.13
2022-08-05T04:08:34.883Z,11.68
2022-08-05T04:11:05.127Z,10.90
2022-08-05T04:13:50.506Z,9.30
2022-08-05T04:16:25.563Z,6.80
2022-08-05T04:18:59.952Z,10.15
2022-08-05T04:22:10.215Z,8.35
2022-08-05T04:24:18.762Z,11.20
2022-08-05T04:26:45.688Z,7.47
2022-08-05T04:29:13.360Z,6.80
2022-08-05T04:31:41.197Z,8.00
2022-08-05T04:34:31.756Z,6.80
2022-08-05T04:36:56.531Z,7.05
2022-08-05T04:39:23.840Z,15.50
2022-08-05T04:41:51.387Z,9.10
2022-08-05T04:44:21.545Z,11.75
2022-08-05T04:46:57.217Z,11.85
2022-08-05T04:49:38.348Z,12.77
2022-08-05T04:52:12.262Z,8.20
2022-08-05T04:54:38.929Z,7.78
2022-08-05T04:57:05.651Z,12.52
2022-08-05T04:59:36.607Z,13.73
2022-08-05T05:02:08.338Z,11.32
2022-08-05T05:04:51.982Z,6.95
2022-08-05T05:07:18.769Z,12.75
2022-08-05T05:09:55.929Z,11.65
2022-08-05T05:12:24.320Z,19.67
2022-08-05T05:14:54.322Z,21.08
2022-08-05T05:17:24.329Z,9.18
2022-08-05T05:19:54.788Z,8.25
2022-08-05T05:22:22.608Z,7.88
2022-08-05T05:24:57.446Z,16.88
2022-08-05T05:27:44.838Z,8.93
2022-08-05T05:30:29.304Z,8.95
2022-08-05T05:33:00.933Z,11.95
2022-08-05T05:35:39.647Z,12.02
2022-08-05T05:38:13.201Z,11.70
2022-08-05T05:40:48.111Z,8.20
2022-08-05T05:43:27.736Z,6.55
2022-08-05T05:46:03.635Z,10.30
2022-08-05T05:48:32.235Z,13.52
2022-08-05T05:51:15.273Z,11.13
2022-08-05T05:53:54.026Z,12.52
2022-08-05T05:56:26.080Z,10.52
2022-08-05T05:59:03.241Z,9.43
2022-08-05T06:01:37.396Z,12.27
2022-08-05T06:04:07.311Z,12.52
2022-08-05T06:06:35.110Z,15.25
2022-08-05T06:09:04.064Z,11.18
2022-08-05T06:11:31.633Z,14.38
2022-08-05T06:14:00.384Z,8.55
2022-08-05T06:16:33.051Z,10.82
2022-08-05T06:19:05.830Z,8.88
2022-08-05T06:21:36.770Z,12.45
2022-08-05T06:24:06.298Z,9.00
2022-08-05T06:29:06.439Z,6.50
2022-08-05T06:31:52.106Z,8.18
2022-08-05T06:34:20.066Z,9.90
2022-08-05T06:36:56.738Z,6.63
2022-08-05T06:39:26.783Z,7.60
2022-08-05T06:41:59.212Z,7.55
2022-08-05T06:44:26.134Z,14.35
2022-08-05T06:46:52.855Z,16.95
2022-08-05T06:49:50.560Z,20.10
2022-08-05T06:52:08.186Z,16.98
2022-08-05T06:54:54.844Z,14.70
2022-08-05T06:58:03.493Z,21.85
2022-08-05T07:03:09.800Z,23.10
2022-08-05T07:05:37.783Z,12.02
2022-08-05T07:08:10.708Z,13.77
2022-08-05T07:10:39.095Z,12.35
2022-08-05T07:13:58.571Z,12.02
2022-08-05T07:18:00.372Z,10.02
2022-08-05T07:22:28.390Z,10.65
2022-08-05T07:24:58.699Z,11.25
2022-08-05T07:27:27.525Z,8.23
2022-08-05T07:30:28.053Z,8.73
2022-08-05T07:32:59.503Z,9.77
2022-08-05T07:36:03.642Z,10.15
2022-08-05T07:38:32.196Z,8.50
2022-08-05T07:41:04.421Z,8.98
2022-08-05T07:43:46.737Z,10.27
2022-08-05T07:46:24.783Z,4.80
2022-08-05T07:49:02.269Z,17.75
2022-08-05T07:51:48.427Z,9.93
2022-08-05T07:54:26.591Z,8.85
2022-08-05T07:59:53.663Z,4.60
2022-08-05T08:02:31.421Z,5.40
2022-08-05T08:05:14.117Z,5.25
2022-08-05T08:08:00.243Z,4.43
2022-08-05T08:10:27.691Z,7.50
2022-08-05T08:12:54.420Z,7.53
2022-08-05T08:22:09.057Z,7.85
2022-08-05T08:24:51.087Z,10.02
2022-08-05T08:27:19.559Z,7.55
2022-08-05T08:30:05.360Z,3.35
2022-08-05T08:32:41.699Z,6.18
2022-08-05T08:35:18.245Z,3.65
2022-08-05T08:37:46.091Z,4.30
2022-08-05T08:40:20.289Z,6.70
2022-08-05T08:42:52.448Z,4.43
2022-08-05T08:45:26.524Z,4.90
2022-08-05T08:48:07.319Z,4.57
2022-08-05T08:51:03.631Z,5.63
2022-08-05T08:53:36.010Z,3.42
2022-08-05T08:56:06.062Z,7.60
2022-08-05T08:58:43.347Z,4.50
2022-08-05T09:01:15.848Z,6.15
2022-08-05T09:03:47.411Z,4.13
2022-08-05T09:06:17.187Z,6.43
2022-08-05T09:08:45.316Z,5.68
2022-08-05T09:11:13.916Z,5.45
2022-08-05T09:14:10.167Z,6.30
2022-08-05T09:16:30.045Z,10.07
2022-08-05T09:18:59.447Z,6.68
2022-08-05T09:22:17.858Z,7.03
2022-08-05T09:24:15.595Z,6.72
2022-08-05T09:26:47.469Z,2.10
2022-08-05T09:29:19.182Z,3.40
2022-08-05T09:32:42.299Z,6.72
2022-08-05T09:34:56.025Z,4.70
2022-08-05T09:38:17.719Z,3.28
2022-08-05T09:40:37.886Z,3.20
2022-08-05T09:43:10.410Z,4.53
2022-08-05T09:46:06.176Z,7.80
2022-08-05T09:48:34.411Z,3.22
2022-08-05T09:51:04.339Z,8.27
2022-08-05T09:53:53.662Z,4.15
2022-08-05T09:56:30.335Z,2.78
2022-08-05T09:58:58.114Z,4.65
2022-08-05T10:01:32.324Z,2.70
2022-08-05T10:04:28.657Z,2.13
2022-08-05T10:06:59.590Z,3.65
2022-08-05T10:09:29.516Z,4.43
2022-08-05T10:12:30.615Z,8.82
2022-08-05T10:15:23.595Z,3.33
2022-08-05T10:18:17.532Z,2.75
2022-08-05T10:21:11.748Z,3.38
2022-08-05T10:24:00.150Z,4.65
2022-08-05T10:26:31.583Z,4.63
2022-08-05T10:28:59.635Z,6.47
2022-08-05T10:32:53.047Z,3.65
2022-08-05T10:34:13.830Z,4.63
2022-08-05T10:36:41.998Z,8.45
2022-08-05T10:39:24.484Z,4.57
2022-08-05T10:42:18.415Z,5.97
2022-08-05T10:44:49.504Z,4.60
2022-08-05T10:47:26.457Z,5.72
2022-08-05T10:50:33.096Z,8.02
2022-08-05T10:52:59.812Z,3.25
2022-08-05T10:55:27.753Z,10.27
2022-08-05T10:58:20.974Z,2.70
2022-08-05T11:00:48.500Z,3.40
2022-08-05T11:03:25.434Z,7.22
2022-08-05T11:06:16.155Z,6.93
2022-08-05T11:09:31.864Z,6.80
2022-08-05T11:12:06.117Z,11.63
2022-08-05T11:18:00.249Z,5.40
2022-08-05T11:20:46.351Z,6.20
2022-08-05T11:24:05.092Z,5.13
2022-08-05T11:26:40.317Z,5.82
2022-08-05T11:29:13.811Z,10.52
2022-08-05T11:31:56.561Z,4.10
2022-08-05T11:34:37.918Z,8.93
2022-08-05T11:37:06.057Z,6.00
2022-08-05T11:39:55.386Z,3.75
2022-08-05T11:42:28.336Z,2.75
2022-08-05T11:45:03.466Z,5.82
2022-08-05T11:47:48.854Z,6.35
2022-08-05T11:50:17.706Z,9.15
2022-08-05T11:52:48.780Z,6.53
2022-08-05T11:55:17.228Z,4.32
2022-08-05T11:58:10.145Z,5.28
2022-08-05T12:00:38.087Z,6.22
2022-08-05T12:03:28.386Z,6.25
2022-08-05T12:06:01.761Z,5.97
2022-08-05T12:08:28.983Z,8.55
2022-08-05T12:11:05.709Z,6.20
2022-08-05T12:13:49.285Z,4.97
2022-08-05T12:16:19.206Z,3.85
2022-08-05T12:18:52.484Z,6.00
2022-08-05T12:21:30.336Z,8.27
2022-08-05T12:24:06.710Z,9.70
2022-08-05T12:26:36.430Z,11.48
2022-08-05T12:29:09.458Z,3.45
2022-08-05T12:31:46.246Z,6.15
2022-08-05T12:34:20.554Z,5.10
2022-08-05T12:36:50.245Z,7.07
2022-08-05T12:39:17.793Z,9.32
2022-08-05T12:41:45.390Z,5.57
2022-08-05T12:44:14.617Z,7.38
2022-08-05T12:46:56.289Z,7.57
2022-08-05T12:49:25.565Z,9.07
2022-08-05T12:52:14.263Z,7.25
2022-08-05T12:54:49.662Z,3.60
2022-08-05T12:57:17.189Z,4.15
2022-08-05T13:01:56.797Z,3.05
2022-08-05T13:02:37.352Z,4.13
2022-08-05T13:05:07.617Z,5.25
2022-08-05T13:10:21.901Z,3.38
2022-08-05T13:12:57.120Z,2.13
2022-08-05T13:15:35.922Z,3.33
2022-08-05T13:18:19.688Z,4.75
2022-08-05T13:20:49.401Z,2.35
2022-08-05T13:23:18.302Z,4.50
2022-08-05T13:25:51.806Z,4.13
2022-08-05T13:28:25.814Z,3.58
2022-08-05T13:30:53.465Z,2.08
2022-08-05T13:34:23.460Z,3.90
2022-08-05T13:36:09.495Z,4.53
2022-08-05T13:38:38.561Z,3.03
2022-08-05T13:41:09.972Z,3.20
2022-08-05T13:43:45.475Z,5.30
2022-08-05T13:47:01.928Z,4.95
2022-08-05T13:49:10.312Z,2.92
2022-08-05T13:51:41.543Z,2.33
2022-08-05T13:54:11.914Z,3.00
2022-08-05T13:56:45.295Z,7.20
2022-08-05T13:59:20.155Z,4.05
2022-08-05T14:01:57.469Z,6.28
2022-08-05T14:04:52.194Z,3.50
2022-08-05T14:07:25.668Z,2.78
2022-08-05T14:10:09.592Z,3.58
2022-08-05T14:12:36.787Z,2.60
2022-08-05T14:15:06.050Z,2.72
2022-08-05T14:17:51.832Z,2.60
2022-08-05T14:20:22.022Z,3.85
2022-08-05T14:22:54.339Z,3.85
2022-08-05T14:25:22.485Z,2.25
2022-08-05T14:30:21.535Z,5.47
2022-08-05T14:32:49.037Z,2.42
2022-08-05T14:35:16.212Z,4.50
2022-08-05T14:37:52.149Z,3.90
2022-08-05T14:40:24.492Z,4.03
2022-08-05T14:42:51.864Z,7.22
2022-08-05T14:45:18.692Z,6.97
2022-08-05T14:48:02.513Z,2.67
2022-08-05T14:50:31.017Z,3.65
2022-08-05T14:52:59.562Z,6.55
2022-08-05T14:55:28.778Z,3.60
2022-08-05T14:58:12.171Z,4.68
2022-08-05T15:00:59.787Z,6.45
2022-08-05T15:03:33.142Z,3.88
2022-08-05T15:06:07.756Z,7.47
2022-08-05T15:08:59.390Z,4.05
2022-08-05T15:11:51.651Z,3.55
2022-08-05T15:14:33.348Z,5.75
2022-08-05T15:17:01.155Z,7.75
2022-08-05T15:19:27.944Z,2.42
2022-08-05T15:21:58.005Z,6.13
2022-08-05T15:24:27.554Z,3.95
2022-08-05T15:26:55.997Z,8.98
2022-08-05T15:29:29.779Z,11.63
2022-08-05T15:31:57.706Z,3.85
2022-08-05T15:34:33.184Z,3.80
2022-08-05T15:37:06.112Z,4.45
2022-08-05T15:40:59.226Z,2.80
2022-08-05T15:42:56.706Z,6.97
2022-08-05T15:45:07.612Z,4.60
2022-08-05T15:47:37.301Z,2.72
2022-08-05T15:50:07.206Z,3.78
2022-08-05T15:52:53.621Z,5.22
2022-08-05T15:55:24.554Z,2.60
2022-08-05T15:57:51.621Z,10.75
2022-08-05T16:00:26.124Z,4.47
2022-08-05T16:03:05.943Z,2.78
2022-08-05T16:05:32.614Z,11.80
2022-08-05T16:07:59.283Z,5.57
2022-08-05T16:10:27.101Z,4.70
2022-08-05T16:12:56.010Z,3.42
2022-08-05T16:15:23.596Z,3.75
2022-08-05T16:17:57.801Z,4.47
2022-08-05T16:20:25.452Z,6.97
2022-08-05T16:22:52.201Z,4.85
2022-08-05T16:25:18.867Z,4.38
2022-08-05T16:27:59.740Z,4.97
2022-08-05T16:30:32.319Z,10.00
2022-08-05T16:32:59.564Z,5.88
2022-08-05T16:35:28.611Z,6.75
2022-08-05T16:43:26.546Z,7.20
2022-08-05T16:46:07.434Z,4.28
2022-08-05T16:48:39.799Z,6.15
2022-08-05T16:51:09.186Z,5.95
2022-08-05T16:54:03.991Z,6.80
2022-08-05T16:56:25.070Z,4.85
2022-08-05T16:58:52.020Z,4.53
2022-08-05T17:01:19.123Z,6.28
2022-08-05T17:03:46.436Z,8.98
2022-08-05T17:06:16.392Z,5.03
2022-08-05T17:08:52.741Z,6.28
2022-08-05T17:11:24.992Z,8.77
2022-08-05T17:14:00.413Z,4.30
2022-08-05T17:16:36.173Z,6.40
2022-08-05T17:19:07.472Z,4.15
2022-08-05T17:21:36.082Z,6.80
2022-08-05T17:24:30.375Z,3.53
2022-08-05T17:26:56.253Z,5.68
2022-08-05T17:29:33.375Z,4.85
2022-08-05T17:32:06.812Z,6.40
2022-08-05T17:34:35.261Z,3.75
2022-08-05T17:37:02.043Z,5.57
2022-08-05T17:39:33.902Z,4.35
2022-08-05T17:42:18.981Z,6.55
2022-08-05T17:44:50.435Z,6.03
2022-08-05T17:47:22.047Z,5.75
2022-08-05T17:49:59.780Z,7.65
2022-08-05T17:52:30.957Z,5.57
2022-08-05T17:54:57.961Z,7.80
2022-08-05T17:57:24.701Z,6.45
2022-08-05T18:00:03.548Z,10.00
2022-08-05T18:02:32.965Z,4.18
2022-08-05T18:05:02.792Z,5.32
2022-08-05T18:07:40.855Z,5.82
2022-08-05T18:10:11.034Z,4.22
2022-08-05T18:12:38.516Z,3.65
2022-08-05T18:15:06.415Z,5.57
2022-08-05T18:18:01.356Z,7.35
2022-08-05T18:20:28.942Z,4.65
2022-08-05T18:22:57.409Z,4.32
2022-08-05T18:25:25.111Z,5.43
2022-08-05T18:27:52.800Z,3.03
2022-08-05T18:30:19.761Z,3.53
2022-08-05T18:32:53.111Z,3.45
2022-08-05T18:38:08.873Z,3.22
2022-08-05T18:41:53.730Z,3.58
2022-08-05T18:43:23.186Z,3.67
2022-08-05T18:45:49.852Z,3.72
2022-08-05T18:48:31.048Z,2.85
2022-08-05T18:52:05.107Z,1.80
2022-08-05T18:54:05.645Z,2.95
2022-08-05T18:56:33.171Z,1.80
2022-08-05T18:59:01.724Z,1.77
2022-08-05T19:01:47.195Z,1.77
2022-08-05T19:04:15.050Z,1.30
2022-08-05T19:06:53.717Z,0.70
2022-08-05T19:09:21.120Z,0.77
2022-08-05T19:11:59.916Z,1.45
2022-08-05T19:14:37.930Z,1.45
2022-08-05T19:17:16.507Z,1.77
2022-08-05T19:19:47.026Z,2.20
2022-08-05T19:22:17.067Z,1.05
2022-08-05T19:24:55.952Z,2.15
2022-08-05T19:27:27.846Z,0.70
2022-08-05T19:29:57.658Z,1.85
2022-08-05T19:32:26.096Z,1.60
2022-08-05T19:34:55.777Z,1.38
2022-08-05T19:37:35.231Z,2.42
2022-08-05T19:40:11.193Z,2.47
2022-08-05T19:42:38.874Z,3.58
2022-08-05T19:45:07.191Z,2.38
2022-08-05T19:47:37.636Z,1.55
2022-08-05T19:50:06.180Z,2.13
2022-08-05T19:52:34.738Z,0.80
2022-08-05T19:55:06.959Z,1.60
2022-08-05T19:58:19.425Z,1.00
2022-08-05T20:00:36.372Z,1.48
2022-08-05T20:03:08.494Z,1.75
2022-08-05T20:05:43.430Z,2.75
2022-08-05T20:08:17.520Z,1.67
2022-08-05T20:10:44.206Z,1.15
2022-08-05T20:13:16.197Z,1.30
2022-08-05T20:15:51.840Z,0.70
2022-08-05T20:18:33.408Z,1.65
2022-08-05T20:21:05.036Z,2.47
2022-08-05T20:23:40.147Z,0.70
2022-08-05T20:26:25.252Z,1.92
2022-08-05T20:28:55.914Z,1.40
2022-08-05T20:31:37.299Z,5.05
2022-08-05T20:34:12.448Z,1.08
2022-08-05T20:36:43.439Z,1.80
2022-08-05T20:39:13.005Z,1.70
2022-08-05T20:41:44.190Z,1.02
2022-08-05T20:44:19.354Z,4.03
2022-08-05T20:47:01.296Z,2.45
2022-08-05T20:49:28.116Z,3.50
2022-08-05T20:51:57.242Z,1.25
2022-08-05T20:54:43.025Z,4.35
2022-08-05T20:57:41.928Z,2.28
2022-08-05T21:00:21.298Z,2.45
2022-08-05T21:02:56.955Z,2.38
2022-08-05T21:05:24.643Z,6.28
2022-08-05T21:07:52.214Z,1.80
2022-08-05T21:10:19.526Z,5.68
2022-08-05T21:13:08.856Z,1.13
2022-08-05T21:15:33.911Z,5.22
2022-08-05T21:18:00.830Z,3.55
2022-08-05T21:20:33.170Z,3.20
2022-08-05T21:23:00.936Z,1.20
2022-08-05T21:25:33.736Z,1.60
2022-08-05T21:28:01.996Z,2.00
2022-08-05T21:30:28.665Z,2.47
2022-08-05T21:32:55.356Z,1.58
2022-08-05T21:35:29.775Z,2.47
2022-08-05T21:37:57.439Z,1.63
2022-08-05T21:40:24.839Z,2.00
2022-08-05T21:42:53.556Z,4.55
2022-08-05T21:45:24.472Z,1.95
2022-08-05T21:47:56.594Z,2.67
2022-08-05T21:50:27.496Z,3.08
2022-08-05T21:52:58.739Z,2.83
2022-08-05T21:55:42.883Z,4.03
2022-08-05T21:58:19.249Z,3.00
2022-08-05T22:00:50.947Z,2.40
2022-08-05T22:03:48.285Z,1.75
2022-08-05T22:06:06.313Z,1.63
2022-08-05T22:08:35.006Z,2.38
2022-08-05T22:11:01.633Z,2.40
2022-08-05T22:14:18.331Z,4.82
2022-08-05T22:16:39.490Z,2.08
2022-08-05T22:19:02.383Z,3.60
2022-08-05T22:21:29.139Z,4.93
2022-08-05T22:24:39.711Z,2.72
2022-08-05T22:29:48.085Z,3.80
2022-08-05T22:32:17.195Z,4.50
2022-08-05T22:34:44.439Z,3.03
2022-08-05T22:37:12.749Z,1.55
2022-08-05T22:39:39.684Z,3.22
2022-08-05T22:42:12.734Z,3.20
2022-08-05T22:44:48.294Z,3.97
2022-08-05T22:47:28.972Z,5.32
2022-08-05T22:50:19.178Z,3.13
2022-08-05T22:52:44.962Z,4.43
2022-08-05T22:55:19.257Z,5.70
2022-08-05T23:00:18.315Z,1.48
2022-08-05T23:02:48.285Z,5.38
2022-08-05T23:05:16.307Z,4.20
2022-08-05T23:07:48.253Z,3.85
2022-08-05T23:10:20.280Z,2.53
2022-08-05T23:12:51.697Z,5.97
2022-08-05T23:15:22.460Z,6.63
2022-08-05T23:20:28.585Z,2.38
2022-08-05T23:22:55.901Z,4.60
2022-08-05T23:25:54.557Z,4.85
2022-08-05T23:28:12.022Z,3.40
2022-08-05T23:30:39.811Z,5.55
2022-08-05T23:33:16.387Z,2.97
2022-08-05T23:35:49.999Z,5.22
2022-08-05T23:38:16.901Z,5.30
2022-08-05T23:40:49.463Z,6.82
2022-08-05T23:43:24.811Z,4.25
2022-08-05T23:46:04.203Z,5.20
2022-08-05T23:48:30.905Z,4.85
2022-08-05T23:50:58.668Z,7.53
2022-08-05T23:53:28.354Z,1.50
2022-08-05T23:56:12.778Z,3.50
2022-08-05T23:58:46.756Z,3.60
